Time,TemperatureF,DewpointF,PressureIn,WindDirection,WindDirectionDegrees,WindSpeedMPH,WindSpeedGustMPH,Humidity,HourlyPrecipIn,Conditions,Clouds,dailyrainin,SoftwareType,DateUTC
2013-07-21 00:01:00,82.0,69.0,29.80,WSW,251,0.0,3.0,64,0.00,,,0.04,,2013-07-21 04:01:00,
2013-07-21 00:11:00,82.0,68.0,29.81,WSW,253,1.0,2.0,62,0.00,,,0.04,,2013-07-21 04:11:00,
2013-07-21 00:22:00,82.0,68.0,29.81,WSW,253,1.0,2.0,62,0.00,,,0.04,,2013-07-21 04:22:00,
2013-07-21 00:32:00,82.0,68.0,29.81,WNW,301,3.0,8.0,62,0.00,,,0.04,,2013-07-21 04:32:00,
2013-07-21 00:43:00,82.0,70.0,29.83,NNW,333,5.0,10.0,68,0.02,,,0.06,,2013-07-21 04:43:00,
2013-07-21 00:53:00,82.0,70.0,29.83,NNW,333,5.0,10.0,68,0.02,,,0.06,,2013-07-21 04:53:00,
2013-07-21 01:02:00,82.0,70.0,29.83,NNW,333,5.0,10.0,68,0.02,,,0.06,,2013-07-21 05:02:00,
2013-07-21 01:11:00,82.0,70.0,29.83,NNW,333,5.0,10.0,68,0.02,,,0.06,,2013-07-21 05:11:00,
2013-07-21 01:22:00,82.0,70.0,29.83,NNW,333,5.0,10.0,68,0.02,,,0.06,,2013-07-21 05:22:00,
2013-07-21 01:42:00,78.0,72.0,29.82,NNW,338,0.0,0.0,82,0.01,,,0.07,,2013-07-21 05:42:00,
2013-07-21 01:52:00,78.0,72.0,29.83,NNW,339,0.0,0.0,83,0.00,,,0.07,,2013-07-21 05:52:00,
2013-07-21 02:01:00,78.0,72.0,29.83,NNW,340,1.0,1.0,83,0.00,,,0.07,,2013-07-21 06:01:00,
2013-07-21 02:11:00,78.0,72.0,29.83,NNW,340,0.0,0.0,82,0.00,,,0.07,,2013-07-21 06:11:00,
2013-07-21 02:22:00,78.0,72.0,29.83,NNW,339,1.0,2.0,82,0.00,,,0.07,,2013-07-21 06:22:00,
2013-07-21 02:32:00,78.0,71.0,29.83,SW,228,4.0,5.0,78,0.00,,,0.07,,2013-07-21 06:32:00,
2013-07-21 02:43:00,78.0,71.0,29.83,SW,228,4.0,5.0,78,0.00,,,0.07,,2013-07-21 06:43:00,
2013-07-21 02:52:00,78.0,71.0,29.83,SW,228,4.0,5.0,78,0.00,,,0.07,,2013-07-21 06:52:00,
2013-07-21 03:01:00,79.0,71.0,29.83,WSW,240,0.0,0.0,76,0.00,,,0.07,,2013-07-21 07:01:00,
2013-07-21 03:11:00,78.0,70.0,29.82,WSW,241,0.0,0.0,77,0.00,,,0.07,,2013-07-21 07:11:00,
2013-07-21 03:22:00,78.0,70.0,29.82,WSW,241,0.0,0.0,77,0.00,,,0.07,,2013-07-21 07:22:00,
2013-07-21 03:32:00,78.0,70.0,29.82,WSW,241,0.0,0.0,77,0.00,,,0.07,,2013-07-21 07:32:00,
2013-07-21 03:43:00,78.0,71.0,29.82,WNW,297,1.0,1.0,79,0.00,,,0.07,,2013-07-21 07:43:00,
2013-07-21 03:52:00,78.0,71.0,29.81,WNW,301,0.0,0.0,79,0.00,,,0.07,,2013-07-21 07:52:00,
2013-07-21 04:02:00,78.0,71.0,29.81,WNW,301,0.0,0.0,79,0.00,,,0.07,,2013-07-21 08:02:00,
2013-07-21 04:11:00,78.0,71.0,29.81,WNW,296,0.0,0.0,79,0.00,,,0.07,,2013-07-21 08:11:00,
2013-07-21 04:22:00,78.0,71.0,29.82,WNW,299,2.0,2.0,78,0.00,,,0.07,,2013-07-21 08:22:00,
2013-07-21 04:33:00,78.0,71.0,29.82,WNW,299,2.0,2.0,78,0.00,,,0.07,,2013-07-21 08:33:00,
2013-07-21 04:43:00,78.0,71.0,29.82,WNW,299,2.0,2.0,78,0.00,,,0.07,,2013-07-21 08:43:00,
2013-07-21 04:52:00,78.0,71.0,29.82,WNW,299,2.0,2.0,78,0.00,,,0.07,,2013-07-21 08:52:00,
2013-07-21 05:02:00,78.0,71.0,29.82,WNW,299,2.0,2.0,78,0.00,,,0.07,,2013-07-21 09:02:00,
2013-07-21 05:12:00,78.0,70.0,29.83,WNW,298,2.0,4.0,76,0.00,,,0.07,,2013-07-21 09:12:00,
2013-07-21 05:22:00,78.0,70.0,29.84,WNW,298,1.0,3.0,76,0.00,,,0.07,,2013-07-21 09:22:00,
2013-07-21 05:32:00,78.0,70.0,29.84,WNW,297,0.0,0.0,77,0.00,,,0.07,,2013-07-21 09:32:00,
2013-07-21 05:42:00,78.0,71.0,29.84,WNW,297,0.0,0.0,78,0.00,,,0.07,,2013-07-21 09:42:00,
2013-07-21 05:52:00,78.0,71.0,29.84,WNW,297,0.0,0.0,78,0.00,,,0.07,,2013-07-21 09:52:00,
2013-07-21 06:02:00,78.0,71.0,29.84,WNW,297,0.0,0.0,78,0.00,,,0.07,,2013-07-21 10:02:00,
2013-07-21 06:11:00,77.0,70.0,29.84,NNW,347,2.0,3.0,80,0.00,,,0.07,,2013-07-21 10:11:00,
2013-07-21 06:22:00,77.0,70.0,29.84,North,353,0.0,2.0,80,0.00,,,0.07,,2013-07-21 10:22:00,
2013-07-21 06:32:00,77.0,71.0,29.84,North,11,2.0,4.0,81,0.00,,,0.07,,2013-07-21 10:32:00,
2013-07-21 06:43:00,77.0,71.0,29.85,North,0,0.0,3.0,81,0.00,,,0.07,,2013-07-21 10:43:00,
2013-07-21 06:52:00,77.0,70.0,29.85,NE,47,3.0,4.0,80,0.00,,,0.07,,2013-07-21 10:52:00,
2013-07-21 07:02:00,77.0,68.0,29.85,ENE,65,4.0,8.0,75,0.00,,,0.07,,2013-07-21 11:02:00,
2013-07-21 07:12:00,77.0,65.0,29.85,NE,54,5.0,9.0,66,0.00,,,0.07,,2013-07-21 11:12:00,
2013-07-21 07:22:00,78.0,64.0,29.86,NNE,27,6.0,10.0,63,0.00,,,0.07,,2013-07-21 11:22:00,
2013-07-21 07:33:00,78.0,63.0,29.86,NNE,27,5.0,8.0,61,0.00,,,0.07,,2013-07-21 11:33:00,
2013-07-21 07:43:00,78.0,62.0,29.86,NE,51,8.0,8.0,59,0.00,,,0.07,,2013-07-21 11:43:00,
2013-07-21 07:52:00,78.0,62.0,29.87,NE,34,1.0,4.0,59,0.00,,,0.07,,2013-07-21 11:52:00,
2013-07-21 08:01:00,78.0,62.0,29.87,NE,46,10.0,10.0,57,0.00,,,0.07,,2013-07-21 12:01:00,
2013-07-21 08:11:00,78.0,62.0,29.87,NE,46,10.0,10.0,57,0.00,,,0.07,,2013-07-21 12:11:00,
2013-07-21 08:22:00,78.0,62.0,29.88,North,9,4.0,5.0,57,0.00,,,0.07,,2013-07-21 12:22:00,
2013-07-21 08:32:00,79.0,61.0,29.88,NNE,25,5.0,9.0,55,0.00,,,0.07,,2013-07-21 12:32:00,
2013-07-21 08:43:00,79.0,61.0,29.88,NNW,347,4.0,5.0,54,0.00,,,0.07,,2013-07-21 12:43:00,
2013-07-21 08:53:00,79.0,61.0,29.88,NNW,347,4.0,5.0,54,0.00,,,0.07,,2013-07-21 12:53:00,
2013-07-21 09:02:00,79.0,61.0,29.88,NNW,347,4.0,5.0,54,0.00,,,0.07,,2013-07-21 13:02:00,
2013-07-21 09:12:00,80.0,61.0,29.89,North,357,0.0,4.0,52,0.00,,,0.07,,2013-07-21 13:12:00,
2013-07-21 09:22:00,80.0,61.0,29.89,North,357,0.0,4.0,52,0.00,,,0.07,,2013-07-21 13:22:00,
2013-07-21 09:33:00,80.0,61.0,29.89,North,357,0.0,4.0,52,0.00,,,0.07,,2013-07-21 13:33:00,
2013-07-21 09:43:00,80.0,60.0,29.90,NE,49,2.0,3.0,50,0.00,,,0.07,,2013-07-21 13:43:00,
2013-07-21 09:52:00,81.0,61.0,29.90,NNE,22,3.0,4.0,50,0.00,,,0.07,,2013-07-21 13:52:00,
2013-07-21 10:01:00,81.0,61.0,29.90,NNE,22,3.0,4.0,50,0.00,,,0.07,,2013-07-21 14:01:00,
2013-07-21 10:12:00,81.0,61.0,29.89,NE,41,3.0,8.0,50,0.00,,,0.07,,2013-07-21 14:12:00,
2013-07-21 10:23:00,82.0,61.0,29.89,East,101,3.0,5.0,50,0.00,,,0.07,,2013-07-21 14:23:00,
2013-07-21 10:43:00,83.0,61.0,29.90,ENE,67,3.0,7.0,47,0.00,,,0.07,,2013-07-21 14:43:00,
2013-07-21 10:53:00,84.0,62.0,29.90,NE,45,0.0,2.0,48,0.00,,,0.07,,2013-07-21 14:53:00,
2013-07-21 11:02:00,84.0,62.0,29.90,NE,45,0.0,2.0,48,0.00,,,0.07,,2013-07-21 15:02:00,
2013-07-21 11:11:00,84.0,62.0,29.90,NE,45,0.0,2.0,48,0.00,,,0.07,,2013-07-21 15:11:00,
2013-07-21 11:22:00,84.0,62.0,29.90,NE,45,0.0,2.0,48,0.00,,,0.07,,2013-07-21 15:22:00,
2013-07-21 11:32:00,86.0,57.0,29.90,East,94,4.0,5.0,38,0.00,,,0.07,,2013-07-21 15:32:00,
2013-07-21 11:43:00,85.0,57.0,29.90,NE,51,10.0,10.0,39,0.00,,,0.07,,2013-07-21 15:43:00,
2013-07-21 11:53:00,85.0,57.0,29.90,ENE,71,3.0,5.0,39,0.00,,,0.07,,2013-07-21 15:53:00,
2013-07-21 12:01:00,85.0,55.0,29.90,ENE,65,3.0,5.0,36,0.00,,,0.07,,2013-07-21 16:01:00,
2013-07-21 12:11:00,86.0,57.0,29.90,East,85,3.0,4.0,38,0.00,,,0.07,,2013-07-21 16:11:00,
2013-07-21 12:22:00,86.0,57.0,29.90,East,85,3.0,4.0,38,0.00,,,0.07,,2013-07-21 16:22:00,
2013-07-21 12:32:00,85.0,56.0,29.91,ENE,77,3.0,6.0,37,0.00,,,0.07,,2013-07-21 16:32:00,
2013-07-21 12:43:00,85.0,56.0,29.91,ENE,77,3.0,6.0,37,0.00,,,0.07,,2013-07-21 16:43:00,
2013-07-21 12:52:00,87.0,58.0,29.91,NNE,26,3.0,5.0,37,0.00,,,0.07,,2013-07-21 16:52:00,
2013-07-21 13:02:00,87.0,58.0,29.91,NNE,26,3.0,5.0,37,0.00,,,0.07,,2013-07-21 17:02:00,
2013-07-21 13:11:00,87.0,60.0,29.92,NE,44,3.0,6.0,40,0.00,,,0.07,,2013-07-21 17:11:00,
2013-07-21 13:22:00,87.0,58.0,29.91,North,0,4.0,4.0,38,0.00,,,0.07,,2013-07-21 17:22:00,
2013-07-21 13:33:00,86.0,58.0,29.91,NE,39,3.0,5.0,39,0.00,,,0.07,,2013-07-21 17:33:00,
2013-07-21 13:43:00,86.0,57.0,29.91,NE,51,1.0,5.0,38,0.00,,,0.07,,2013-07-21 17:43:00,
2013-07-21 13:53:00,86.0,57.0,29.91,NE,51,1.0,5.0,38,0.00,,,0.07,,2013-07-21 17:53:00,
2013-07-21 14:01:00,86.0,57.0,29.91,NE,51,1.0,5.0,38,0.00,,,0.07,,2013-07-21 18:01:00,
2013-07-21 14:11:00,88.0,58.0,29.91,NNE,18,2.0,6.0,37,0.00,,,0.07,,2013-07-21 18:11:00,
2013-07-21 14:22:00,88.0,58.0,29.91,NNE,18,2.0,6.0,37,0.00,,,0.07,,2013-07-21 18:22:00,
2013-07-21 14:32:00,88.0,58.0,29.91,NNE,18,2.0,6.0,37,0.00,,,0.07,,2013-07-21 18:32:00,
2013-07-21 14:43:00,88.0,60.0,29.91,NNE,33,1.0,3.0,39,0.00,,,0.07,,2013-07-21 18:43:00,
2013-07-21 14:52:00,88.0,60.0,29.91,NNE,33,1.0,3.0,39,0.00,,,0.07,,2013-07-21 18:52:00,
2013-07-21 15:01:00,89.0,60.0,29.91,ESE,103,1.0,5.0,38,0.00,,,0.07,,2013-07-21 19:01:00,
2013-07-21 15:11:00,89.0,60.0,29.91,ESE,102,3.0,7.0,38,0.00,,,0.07,,2013-07-21 19:11:00,
2013-07-21 15:22:00,89.0,60.0,29.91,ESE,102,3.0,7.0,38,0.00,,,0.07,,2013-07-21 19:22:00,
2013-07-21 15:32:00,88.0,61.0,29.91,NNE,33,3.0,3.0,40,0.00,,,0.07,,2013-07-21 19:32:00,
2013-07-21 15:42:00,88.0,61.0,29.91,NNE,33,3.0,3.0,40,0.00,,,0.07,,2013-07-21 19:42:00,
2013-07-21 15:52:00,88.0,61.0,29.91,NNE,33,3.0,3.0,40,0.00,,,0.07,,2013-07-21 19:52:00,
2013-07-21 16:02:00,87.0,62.0,29.90,ESE,119,3.0,6.0,43,0.00,,,0.07,,2013-07-21 20:02:00,
2013-07-21 16:12:00,87.0,62.0,29.90,South,174,3.0,4.0,44,0.00,,,0.07,,2013-07-21 20:12:00,
2013-07-21 16:22:00,87.0,62.0,29.90,SE,144,4.0,6.0,44,0.00,,,0.07,,2013-07-21 20:22:00,
2013-07-21 16:32:00,86.0,62.0,29.90,ESE,111,3.0,10.0,45,0.00,,,0.07,,2013-07-21 20:32:00,
2013-07-21 16:43:00,86.0,62.0,29.90,East,100,8.0,8.0,45,0.00,,,0.07,,2013-07-21 20:43:00,
2013-07-21 16:52:00,86.0,62.0,29.90,ESE,103,2.0,6.0,45,0.00,,,0.07,,2013-07-21 20:52:00,
2013-07-21 17:01:00,86.0,62.0,29.90,ESE,109,3.0,4.0,44,0.00,,,0.07,,2013-07-21 21:01:00,
2013-07-21 17:11:00,86.0,62.0,29.90,SE,128,4.0,7.0,45,0.00,,,0.07,,2013-07-21 21:11:00,
2013-07-21 17:22:00,86.0,62.0,29.90,SE,128,4.0,7.0,45,0.00,,,0.07,,2013-07-21 21:22:00,
2013-07-21 17:32:00,85.0,62.0,29.90,SE,136,4.0,6.0,46,0.00,,,0.07,,2013-07-21 21:32:00,
2013-07-21 17:43:00,85.0,62.0,29.89,SE,144,3.0,5.0,47,0.00,,,0.07,,2013-07-21 21:43:00,
2013-07-21 17:52:00,85.0,62.0,29.89,South,174,5.0,8.0,47,0.00,,,0.07,,2013-07-21 21:52:00,
2013-07-21 18:01:00,84.0,62.0,29.89,SW,235,4.0,8.0,47,0.00,,,0.07,,2013-07-21 22:01:00,
2013-07-21 18:11:00,84.0,62.0,29.89,SW,235,4.0,8.0,47,0.00,,,0.07,,2013-07-21 22:11:00,
2013-07-21 18:22:00,84.0,62.0,29.89,SW,235,4.0,8.0,47,0.00,,,0.07,,2013-07-21 22:22:00,
2013-07-21 18:32:00,84.0,62.0,29.89,South,176,3.0,3.0,48,0.00,,,0.04,,2013-07-21 22:32:00,
2013-07-21 18:43:00,84.0,62.0,29.89,SE,146,6.0,8.0,48,0.00,,,0.03,,2013-07-21 22:43:00,
2013-07-21 18:52:00,84.0,62.0,29.90,SSE,155,1.0,6.0,48,0.00,,,0.03,,2013-07-21 22:52:00,
2013-07-21 19:02:00,84.0,63.0,29.90,SSE,162,3.0,5.0,50,0.00,,,0.03,,2013-07-21 23:02:00,
2013-07-21 19:11:00,83.0,63.0,29.90,South,175,5.0,7.0,51,0.00,,,0.03,,2013-07-21 23:11:00,
2013-07-21 19:22:00,83.0,63.0,29.90,South,175,5.0,7.0,51,0.00,,,0.03,,2013-07-21 23:22:00,
2013-07-21 19:32:00,83.0,64.0,29.90,South,185,3.0,4.0,52,0.00,,,0.03,,2013-07-21 23:32:00,
2013-07-21 19:42:00,83.0,64.0,29.90,South,185,3.0,4.0,52,0.00,,,0.03,,2013-07-21 23:42:00,
2013-07-21 19:53:00,82.0,65.0,29.90,SE,142,6.0,6.0,56,0.00,,,0.03,,2013-07-21 23:53:00,
2013-07-21 20:01:00,81.0,64.0,29.90,SSE,163,6.0,8.0,57,0.00,,,0.03,,2013-07-22 00:01:00,
2013-07-21 20:11:00,80.0,65.0,29.90,SSW,204,4.0,8.0,60,0.00,,,0.03,,2013-07-22 00:11:00,
2013-07-21 20:22:00,80.0,66.0,29.90,SSE,158,3.0,6.0,62,0.00,,,0.03,,2013-07-22 00:22:00,
2013-07-21 20:32:00,80.0,66.0,29.90,SSE,158,3.0,6.0,62,0.00,,,0.03,,2013-07-22 00:32:00,
2013-07-21 20:42:00,80.0,66.0,29.90,SSE,158,3.0,6.0,62,0.00,,,0.03,,2013-07-22 00:42:00,
2013-07-21 20:52:00,79.0,66.0,29.92,South,191,3.0,6.0,64,0.00,,,0.03,,2013-07-22 00:52:00,
2013-07-21 21:02:00,79.0,67.0,29.92,SSE,165,3.0,4.0,66,0.00,,,0.03,,2013-07-22 01:02:00,
2013-07-21 21:12:00,79.0,67.0,29.92,SSE,165,3.0,4.0,66,0.00,,,0.03,,2013-07-22 01:12:00,
2013-07-21 21:22:00,78.0,67.0,29.93,South,169,6.0,6.0,68,0.00,,,0.03,,2013-07-22 01:22:00,
2013-07-21 21:32:00,78.0,66.0,29.93,South,181,3.0,4.0,67,0.00,,,0.03,,2013-07-22 01:32:00,
2013-07-21 21:42:00,78.0,66.0,29.93,South,174,1.0,5.0,67,0.00,,,0.03,,2013-07-22 01:42:00,
2013-07-21 21:52:00,78.0,66.0,29.93,South,174,1.0,5.0,67,0.00,,,0.03,,2013-07-22 01:52:00,
2013-07-21 22:02:00,78.0,66.0,29.93,SSE,160,2.0,3.0,66,0.00,,,0.03,,2013-07-22 02:02:00,
2013-07-21 22:11:00,78.0,66.0,29.93,SSE,153,0.0,1.0,66,0.00,,,0.03,,2013-07-22 02:11:00,
2013-07-21 22:22:00,78.0,66.0,29.93,SSE,153,0.0,1.0,66,0.00,,,0.03,,2013-07-22 02:22:00,
2013-07-21 22:32:00,78.0,66.0,29.93,SE,137,3.0,4.0,67,0.00,,,0.03,,2013-07-22 02:32:00,
2013-07-21 22:43:00,78.0,66.0,29.93,SE,137,3.0,4.0,67,0.00,,,0.03,,2013-07-22 02:43:00,
2013-07-21 22:52:00,78.0,67.0,29.93,SE,131,0.0,2.0,69,0.00,,,0.03,,2013-07-22 02:52:00,
2013-07-21 23:01:00,78.0,67.0,29.93,SE,129,0.0,0.0,70,0.00,,,0.03,,2013-07-22 03:01:00,
2013-07-21 23:12:00,78.0,67.0,29.93,SE,129,0.0,0.0,70,0.00,,,0.03,,2013-07-22 03:12:00,
2013-07-21 23:22:00,78.0,67.0,29.93,SE,141,0.0,1.0,70,0.00,,,0.03,,2013-07-22 03:22:00,
2013-07-21 23:33:00,78.0,67.0,29.93,SE,141,0.0,1.0,70,0.00,,,0.03,,2013-07-22 03:33:00,
2013-07-21 23:43:00,78.0,67.0,29.93,SE,141,0.0,1.0,70,0.00,,,0.03,,2013-07-22 03:43:00,
2013-07-21 23:53:00,78.0,67.0,29.93,SE,141,0.0,1.0,70,0.00,,,0.03,,2013-07-22 03:53:00,